sensor_id;sensor_type;location;lat;lon;timestamp;temperature;humidity
69281;SHT31;56392;51.082;17.080;2024-01-25T00:02:58;6.53;80.36
69281;SHT31;56392;51.082;17.080;2024-01-25T00:08:23;6.67;79.84
69281;SHT31;56392;51.082;17.080;2024-01-25T00:13:46;6.74;79.58
69281;SHT31;56392;51.082;17.080;2024-01-25T00:19:12;6.80;79.10
69281;SHT31;56392;51.082;17.080;2024-01-25T00:24:37;6.81;78.88
69281;SHT31;56392;51.082;17.080;2024-01-25T00:30:01;6.90;78.28
69281;SHT31;56392;51.082;17.080;2024-01-25T00:35:27;6.80;78.03
69281;SHT31;56392;51.082;17.080;2024-01-25T00:40:53;6.67;78.23
69281;SHT31;56392;51.082;17.080;2024-01-25T00:46:16;6.73;78.03
69281;SHT31;56392;51.082;17.080;2024-01-25T00:51:46;6.91;76.79
69281;SHT31;56392;51.082;17.080;2024-01-25T00:57:13;7.08;75.36
69281;SHT31;56392;51.082;17.080;2024-01-25T01:02:40;7.16;74.22
69281;SHT31;56392;51.082;17.080;2024-01-25T01:08:06;7.23;73.55
69281;SHT31;56392;51.082;17.080;2024-01-25T01:13:31;7.23;73.44
69281;SHT31;56392;51.082;17.080;2024-01-25T01:18:54;7.18;73.41
69281;SHT31;56392;51.082;17.080;2024-01-25T01:24:17;7.32;73.22
69281;SHT31;56392;51.082;17.080;2024-01-25T01:29:41;7.31;72.85
69281;SHT31;56392;51.082;17.080;2024-01-25T01:35:05;7.41;72.22
69281;SHT31;56392;51.082;17.080;2024-01-25T01:40:28;7.48;71.99
69281;SHT31;56392;51.082;17.080;2024-01-25T01:45:55;7.53;71.70
69281;SHT31;56392;51.082;17.080;2024-01-25T01:51:22;7.55;71.72
69281;SHT31;56392;51.082;17.080;2024-01-25T01:56:45;7.56;71.50
69281;SHT31;56392;51.082;17.080;2024-01-25T02:02:10;7.53;71.57
69281;SHT31;56392;51.082;17.080;2024-01-25T02:07:33;7.55;71.45
69281;SHT31;56392;51.082;17.080;2024-01-25T02:12:56;7.46;71.71
69281;SHT31;56392;51.082;17.080;2024-01-25T02:18:22;7.49;71.70
69281;SHT31;56392;51.082;17.080;2024-01-25T02:23:47;7.51;71.45
69281;SHT31;56392;51.082;17.080;2024-01-25T02:29:10;7.46;71.42
69281;SHT31;56392;51.082;17.080;2024-01-25T02:34:41;7.43;71.64
69281;SHT31;56392;51.082;17.080;2024-01-25T02:40:07;7.43;71.38
69281;SHT31;56392;51.082;17.080;2024-01-25T02:45:30;7.45;71.60
69281;SHT31;56392;51.082;17.080;2024-01-25T02:50:54;7.43;71.50
69281;SHT31;56392;51.082;17.080;2024-01-25T02:56:18;7.42;71.79
69281;SHT31;56392;51.082;17.080;2024-01-25T03:01:42;7.39;72.13
69281;SHT31;56392;51.082;17.080;2024-01-25T03:07:05;7.42;72.15
69281;SHT31;56392;51.082;17.080;2024-01-25T03:12:30;7.45;71.90
69281;SHT31;56392;51.082;17.080;2024-01-25T03:17:53;7.48;72.03
69281;SHT31;56392;51.082;17.080;2024-01-25T03:23:17;7.48;71.47
69281;SHT31;56392;51.082;17.080;2024-01-25T03:28:41;7.53;71.35
69281;SHT31;56392;51.082;17.080;2024-01-25T03:34:04;7.56;71.09
69281;SHT31;56392;51.082;17.080;2024-01-25T03:39:28;7.61;70.93
69281;SHT31;56392;51.082;17.080;2024-01-25T03:44:53;7.61;71.13
69281;SHT31;56392;51.082;17.080;2024-01-25T03:50:16;7.63;70.91
69281;SHT31;56392;51.082;17.080;2024-01-25T03:55:40;7.65;70.88
69281;SHT31;56392;51.082;17.080;2024-01-25T04:01:05;7.65;70.64
69281;SHT31;56392;51.082;17.080;2024-01-25T04:06:28;7.65;70.73
69281;SHT31;56392;51.082;17.080;2024-01-25T04:11:54;7.67;70.70
69281;SHT31;56392;51.082;17.080;2024-01-25T04:17:18;7.63;71.16
69281;SHT31;56392;51.082;17.080;2024-01-25T04:22:42;7.59;73.11
69281;SHT31;56392;51.082;17.080;2024-01-25T04:28:05;7.46;73.98
69281;SHT31;56392;51.082;17.080;2024-01-25T04:33:30;7.22;76.70
69281;SHT31;56392;51.082;17.080;2024-01-25T04:38:53;7.25;75.80
69281;SHT31;56392;51.082;17.080;2024-01-25T04:44:16;7.25;75.81
69281;SHT31;56392;51.082;17.080;2024-01-25T04:49:42;7.08;79.58
69281;SHT31;56392;51.082;17.080;2024-01-25T04:55:05;6.88;80.44
69281;SHT31;56392;51.082;17.080;2024-01-25T05:00:30;6.81;78.81
69281;SHT31;56392;51.082;17.080;2024-01-25T05:05:58;7.02;76.16
69281;SHT31;56392;51.082;17.080;2024-01-25T05:11:22;7.07;75.70
69281;SHT31;56392;51.082;17.080;2024-01-25T05:16:45;7.18;75.19
69281;SHT31;56392;51.082;17.080;2024-01-25T05:22:10;7.25;74.91
69281;SHT31;56392;51.082;17.080;2024-01-25T05:27:33;7.23;74.74
69281;SHT31;56392;51.082;17.080;2024-01-25T05:32:56;7.26;74.66
69281;SHT31;56392;51.082;17.080;2024-01-25T05:38:22;7.22;74.64
69281;SHT31;56392;51.082;17.080;2024-01-25T05:43:45;7.22;75.00
69281;SHT31;56392;51.082;17.080;2024-01-25T05:49:08;7.22;75.34
69281;SHT31;56392;51.082;17.080;2024-01-25T05:54:33;7.15;75.88
69281;SHT31;56392;51.082;17.080;2024-01-25T05:59:56;7.12;76.16
69281;SHT31;56392;51.082;17.080;2024-01-25T06:05:20;7.11;76.55
69281;SHT31;56392;51.082;17.080;2024-01-25T06:10:44;7.09;76.88
69281;SHT31;56392;51.082;17.080;2024-01-25T06:16:08;7.04;77.14
69281;SHT31;56392;51.082;17.080;2024-01-25T06:21:31;7.05;77.28
69281;SHT31;56392;51.082;17.080;2024-01-25T06:26:58;7.05;77.03
69281;SHT31;56392;51.082;17.080;2024-01-25T06:32:22;7.05;76.69
69281;SHT31;56392;51.082;17.080;2024-01-25T06:37:46;7.07;76.33
69281;SHT31;56392;51.082;17.080;2024-01-25T06:43:10;7.11;75.86
69281;SHT31;56392;51.082;17.080;2024-01-25T06:48:34;7.09;75.48
69281;SHT31;56392;51.082;17.080;2024-01-25T06:53:57;7.16;75.24
69281;SHT31;56392;51.082;17.080;2024-01-25T06:59:22;7.19;74.86
69281;SHT31;56392;51.082;17.080;2024-01-25T07:04:45;7.26;74.19
69281;SHT31;56392;51.082;17.080;2024-01-25T07:10:08;7.36;73.24
69281;SHT31;56392;51.082;17.080;2024-01-25T07:15:34;7.39;72.43
69281;SHT31;56392;51.082;17.080;2024-01-25T07:20:58;7.48;72.01
69281;SHT31;56392;51.082;17.080;2024-01-25T07:26:22;7.55;71.56
69281;SHT31;56392;51.082;17.080;2024-01-25T07:31:47;7.59;70.95
69281;SHT31;56392;51.082;17.080;2024-01-25T07:37:10;7.65;70.29
69281;SHT31;56392;51.082;17.080;2024-01-25T07:42:34;7.65;70.20
69281;SHT31;56392;51.082;17.080;2024-01-25T07:47:59;7.66;70.12
69281;SHT31;56392;51.082;17.080;2024-01-25T07:53:22;7.82;69.49
69281;SHT31;56392;51.082;17.080;2024-01-25T07:58:45;7.95;68.75
69281;SHT31;56392;51.082;17.080;2024-01-25T08:04:12;8.10;68.04
69281;SHT31;56392;51.082;17.080;2024-01-25T08:09:35;8.28;67.65
69281;SHT31;56392;51.082;17.080;2024-01-25T08:14:58;8.38;67.44
69281;SHT31;56392;51.082;17.080;2024-01-25T08:20:23;8.31;67.61
69281;SHT31;56392;51.082;17.080;2024-01-25T08:25:46;8.17;67.36
69281;SHT31;56392;51.082;17.080;2024-01-25T08:31:10;8.15;67.75
69281;SHT31;56392;51.082;17.080;2024-01-25T08:36:35;8.23;66.99
69281;SHT31;56392;51.082;17.080;2024-01-25T08:41:59;8.24;65.89
69281;SHT31;56392;51.082;17.080;2024-01-25T08:47:25;8.38;65.92
69281;SHT31;56392;51.082;17.080;2024-01-25T08:52:53;8.48;65.37
69281;SHT31;56392;51.082;17.080;2024-01-25T08:58:23;8.76;64.97
69281;SHT31;56392;51.082;17.080;2024-01-25T09:03:46;8.73;65.76
69281;SHT31;56392;51.082;17.080;2024-01-25T09:09:13;8.82;64.53
69281;SHT31;56392;51.082;17.080;2024-01-25T09:14:37;8.95;64.30
69281;SHT31;56392;51.082;17.080;2024-01-25T09:20:02;8.93;63.56
69281;SHT31;56392;51.082;17.080;2024-01-25T09:25:29;9.05;63.43
69281;SHT31;56392;51.082;17.080;2024-01-25T09:30:55;9.09;63.71
69281;SHT31;56392;51.082;17.080;2024-01-25T09:36:21;9.17;63.22
69281;SHT31;56392;51.082;17.080;2024-01-25T09:41:47;9.12;62.97
69281;SHT31;56392;51.082;17.080;2024-01-25T09:47:11;9.30;62.34
69281;SHT31;56392;51.082;17.080;2024-01-25T09:52:36;9.45;62.75
69281;SHT31;56392;51.082;17.080;2024-01-25T09:58:03;9.74;62.57
69281;SHT31;56392;51.082;17.080;2024-01-25T10:03:29;10.03;62.02
69281;SHT31;56392;51.082;17.080;2024-01-25T10:08:52;10.01;61.52
69281;SHT31;56392;51.082;17.080;2024-01-25T10:14:20;9.96;61.19
69281;SHT31;56392;51.082;17.080;2024-01-25T10:19:44;9.70;61.52
69281;SHT31;56392;51.082;17.080;2024-01-25T10:25:12;9.51;61.88
69281;SHT31;56392;51.082;17.080;2024-01-25T10:30:42;9.38;62.76
69281;SHT31;56392;51.082;17.080;2024-01-25T10:36:08;9.28;62.78
69281;SHT31;56392;51.082;17.080;2024-01-25T10:41:32;9.26;62.22
69281;SHT31;56392;51.082;17.080;2024-01-25T10:46:58;9.40;62.35
69281;SHT31;56392;51.082;17.080;2024-01-25T10:52:22;9.31;61.72
69281;SHT31;56392;51.082;17.080;2024-01-25T10:57:46;9.48;62.05
69281;SHT31;56392;51.082;17.080;2024-01-25T11:03:12;9.30;62.02
69281;SHT31;56392;51.082;17.080;2024-01-25T11:08:35;9.12;61.62
69281;SHT31;56392;51.082;17.080;2024-01-25T11:14:04;9.07;62.31
69281;SHT31;56392;51.082;17.080;2024-01-25T11:19:33;9.07;61.68
69281;SHT31;56392;51.082;17.080;2024-01-25T11:24:58;9.00;61.26
69281;SHT31;56392;51.082;17.080;2024-01-25T11:30:23;9.03;61.61
69281;SHT31;56392;51.082;17.080;2024-01-25T11:35:55;9.10;62.16
69281;SHT31;56392;51.082;17.080;2024-01-25T11:41:20;8.95;63.42
69281;SHT31;56392;51.082;17.080;2024-01-25T11:46:43;8.93;63.80
69281;SHT31;56392;51.082;17.080;2024-01-25T11:52:07;8.95;63.70
69281;SHT31;56392;51.082;17.080;2024-01-25T11:57:33;8.90;63.72
69281;SHT31;56392;51.082;17.080;2024-01-25T12:02:57;8.96;62.76
69281;SHT31;56392;51.082;17.080;2024-01-25T12:08:26;9.05;62.37
69281;SHT31;56392;51.082;17.080;2024-01-25T12:13:59;9.13;62.87
69281;SHT31;56392;51.082;17.080;2024-01-25T12:19:22;9.05;61.14
69281;SHT31;56392;51.082;17.080;2024-01-25T12:24:48;9.12;61.35
69281;SHT31;56392;51.082;17.080;2024-01-25T12:30:12;9.17;59.61
69281;SHT31;56392;51.082;17.080;2024-01-25T12:35:35;9.41;59.90
69281;SHT31;56392;51.082;17.080;2024-01-25T12:41:01;9.61;59.33
69281;SHT31;56392;51.082;17.080;2024-01-25T12:46:27;9.59;59.68
69281;SHT31;56392;51.082;17.080;2024-01-25T12:51:52;9.61;59.51
69281;SHT31;56392;51.082;17.080;2024-01-25T12:57:16;9.68;59.71
69281;SHT31;56392;51.082;17.080;2024-01-25T13:02:40;9.57;58.56
69281;SHT31;56392;51.082;17.080;2024-01-25T13:08:05;9.61;58.70
69281;SHT31;56392;51.082;17.080;2024-01-25T13:13:30;9.61;58.75
69281;SHT31;56392;51.082;17.080;2024-01-25T13:18:53;9.50;58.56
69281;SHT31;56392;51.082;17.080;2024-01-25T13:24:18;9.38;58.51
69281;SHT31;56392;51.082;17.080;2024-01-25T13:29:43;9.24;58.63
69281;SHT31;56392;51.082;17.080;2024-01-25T13:35:09;9.24;58.51
69281;SHT31;56392;51.082;17.080;2024-01-25T13:40:34;9.26;58.64
69281;SHT31;56392;51.082;17.080;2024-01-25T13:45:58;9.19;59.48
69281;SHT31;56392;51.082;17.080;2024-01-25T13:51:21;9.09;61.67
69281;SHT31;56392;51.082;17.080;2024-01-25T13:56:45;9.12;61.35
69281;SHT31;56392;51.082;17.080;2024-01-25T14:02:10;9.14;61.33
69281;SHT31;56392;51.082;17.080;2024-01-25T14:07:34;9.16;61.55
69281;SHT31;56392;51.082;17.080;2024-01-25T14:13:00;9.05;62.69
69281;SHT31;56392;51.082;17.080;2024-01-25T14:18:36;8.80;63.84
69281;SHT31;56392;51.082;17.080;2024-01-25T14:23:59;8.66;65.28
69281;SHT31;56392;51.082;17.080;2024-01-25T14:29:23;8.49;65.82
69281;SHT31;56392;51.082;17.080;2024-01-25T14:34:47;8.21;66.56
69281;SHT31;56392;51.082;17.080;2024-01-25T14:40:17;7.98;67.89
69281;SHT31;56392;51.082;17.080;2024-01-25T14:45:42;7.80;68.38
69281;SHT31;56392;51.082;17.080;2024-01-25T14:51:07;7.77;67.74
69281;SHT31;56392;51.082;17.080;2024-01-25T14:56:32;7.77;67.62
69281;SHT31;56392;51.082;17.080;2024-01-25T15:01:55;7.74;66.00
69281;SHT31;56392;51.082;17.080;2024-01-25T15:07:20;7.79;65.73
69281;SHT31;56392;51.082;17.080;2024-01-25T15:12:46;7.80;65.43
69281;SHT31;56392;51.082;17.080;2024-01-25T15:18:11;7.77;65.13
69281;SHT31;56392;51.082;17.080;2024-01-25T15:23:49;7.79;65.17
69281;SHT31;56392;51.082;17.080;2024-01-25T15:29:15;7.73;65.26
69281;SHT31;56392;51.082;17.080;2024-01-25T15:34:38;7.69;65.73
69281;SHT31;56392;51.082;17.080;2024-01-25T15:40:04;7.69;65.98
69281;SHT31;56392;51.082;17.080;2024-01-25T15:45:32;7.67;66.02
69281;SHT31;56392;51.082;17.080;2024-01-25T15:50:56;7.66;66.30
69281;SHT31;56392;51.082;17.080;2024-01-25T15:56:20;7.59;66.60
69281;SHT31;56392;51.082;17.080;2024-01-25T16:01:45;7.59;66.79
69281;SHT31;56392;51.082;17.080;2024-01-25T16:07:08;7.56;67.02
69281;SHT31;56392;51.082;17.080;2024-01-25T16:12:33;7.55;66.90
69281;SHT31;56392;51.082;17.080;2024-01-25T16:17:57;7.53;67.27
69281;SHT31;56392;51.082;17.080;2024-01-25T16:23:21;7.52;67.32
69281;SHT31;56392;51.082;17.080;2024-01-25T16:28:46;7.55;67.34
69281;SHT31;56392;51.082;17.080;2024-01-25T16:34:09;7.56;67.37
69281;SHT31;56392;51.082;17.080;2024-01-25T16:39:34;7.59;67.33
69281;SHT31;56392;51.082;17.080;2024-01-25T16:44:59;7.59;67.54
69281;SHT31;56392;51.082;17.080;2024-01-25T16:50:22;7.56;67.92
69281;SHT31;56392;51.082;17.080;2024-01-25T16:55:50;7.55;68.08
69281;SHT31;56392;51.082;17.080;2024-01-25T17:01:16;7.53;68.49
69281;SHT31;56392;51.082;17.080;2024-01-25T17:06:40;7.49;68.94
69281;SHT31;56392;51.082;17.080;2024-01-25T17:12:04;7.48;68.79
69281;SHT31;56392;51.082;17.080;2024-01-25T17:17:29;7.43;68.47
69281;SHT31;56392;51.082;17.080;2024-01-25T17:22:52;7.48;68.87
69281;SHT31;56392;51.082;17.080;2024-01-25T17:28:17;7.45;69.00
69281;SHT31;56392;51.082;17.080;2024-01-25T17:33:43;7.42;69.16
69281;SHT31;56392;51.082;17.080;2024-01-25T17:39:09;7.42;69.29
69281;SHT31;56392;51.082;17.080;2024-01-25T17:44:32;7.38;69.38
69281;SHT31;56392;51.082;17.080;2024-01-25T17:49:59;7.36;69.59
69281;SHT31;56392;51.082;17.080;2024-01-25T17:55:22;7.38;70.00
69281;SHT31;56392;51.082;17.080;2024-01-25T18:00:45;7.29;70.17
69281;SHT31;56392;51.082;17.080;2024-01-25T18:06:10;7.29;70.26
69281;SHT31;56392;51.082;17.080;2024-01-25T18:11:33;7.28;70.40
69281;SHT31;56392;51.082;17.080;2024-01-25T18:16:57;7.23;70.90
69281;SHT31;56392;51.082;17.080;2024-01-25T18:22:31;7.15;71.38
69281;SHT31;56392;51.082;17.080;2024-01-25T18:28:14;7.11;71.68
69281;SHT31;56392;51.082;17.080;2024-01-25T18:33:40;6.97;72.12
69281;SHT31;56392;51.082;17.080;2024-01-25T18:39:07;6.90;72.59
69281;SHT31;56392;51.082;17.080;2024-01-25T18:44:31;6.79;73.31
69281;SHT31;56392;51.082;17.080;2024-01-25T18:49:54;6.69;73.39
69281;SHT31;56392;51.082;17.080;2024-01-25T18:55:22;6.51;73.84
69281;SHT31;56392;51.082;17.080;2024-01-25T19:00:48;6.46;73.86
69281;SHT31;56392;51.082;17.080;2024-01-25T19:06:12;6.47;73.89
69281;SHT31;56392;51.082;17.080;2024-01-25T19:11:37;6.56;73.99
69281;SHT31;56392;51.082;17.080;2024-01-25T19:17:00;6.60;73.79
69281;SHT31;56392;51.082;17.080;2024-01-25T19:22:26;6.66;73.84
69281;SHT31;56392;51.082;17.080;2024-01-25T19:27:52;6.71;73.65
69281;SHT31;56392;51.082;17.080;2024-01-25T19:33:15;6.70;73.86
69281;SHT31;56392;51.082;17.080;2024-01-25T19:38:39;6.71;74.06
69281;SHT31;56392;51.082;17.080;2024-01-25T19:44:06;6.73;74.32
69281;SHT31;56392;51.082;17.080;2024-01-25T19:49:29;6.69;74.84
69281;SHT31;56392;51.082;17.080;2024-01-25T19:54:54;6.67;74.66
69281;SHT31;56392;51.082;17.080;2024-01-25T20:00:20;6.70;74.55
69281;SHT31;56392;51.082;17.080;2024-01-25T20:05:47;6.70;74.51
69281;SHT31;56392;51.082;17.080;2024-01-25T20:11:10;6.67;74.79
69281;SHT31;56392;51.082;17.080;2024-01-25T20:16:35;6.64;75.19
69281;SHT31;56392;51.082;17.080;2024-01-25T20:21:58;6.61;75.34
69281;SHT31;56392;51.082;17.080;2024-01-25T20:27:23;6.56;75.79
69281;SHT31;56392;51.082;17.080;2024-01-25T20:32:48;6.50;76.33
69281;SHT31;56392;51.082;17.080;2024-01-25T20:38:11;6.50;76.46
69281;SHT31;56392;51.082;17.080;2024-01-25T20:43:36;6.49;76.51
69281;SHT31;56392;51.082;17.080;2024-01-25T20:49:01;6.46;76.55
69281;SHT31;56392;51.082;17.080;2024-01-25T20:54:25;6.49;76.61
69281;SHT31;56392;51.082;17.080;2024-01-25T20:59:49;6.42;76.76
69281;SHT31;56392;51.082;17.080;2024-01-25T21:05:16;6.40;76.77
69281;SHT31;56392;51.082;17.080;2024-01-25T21:10:40;6.40;76.77
69281;SHT31;56392;51.082;17.080;2024-01-25T21:16:05;6.40;76.83
69281;SHT31;56392;51.082;17.080;2024-01-25T21:21:29;6.37;76.84
69281;SHT31;56392;51.082;17.080;2024-01-25T21:26:55;6.37;77.36
69281;SHT31;56392;51.082;17.080;2024-01-25T21:32:18;6.36;77.57
69281;SHT31;56392;51.082;17.080;2024-01-25T21:37:43;6.33;77.67
69281;SHT31;56392;51.082;17.080;2024-01-25T21:43:09;6.34;77.80
69281;SHT31;56392;51.082;17.080;2024-01-25T21:48:32;6.32;77.91
69281;SHT31;56392;51.082;17.080;2024-01-25T21:53:56;6.32;77.81
69281;SHT31;56392;51.082;17.080;2024-01-25T21:59:19;6.33;77.76
69281;SHT31;56392;51.082;17.080;2024-01-25T22:04:42;6.33;77.62
69281;SHT31;56392;51.082;17.080;2024-01-25T22:10:07;6.37;77.59
69281;SHT31;56392;51.082;17.080;2024-01-25T22:15:30;6.34;77.40
69281;SHT31;56392;51.082;17.080;2024-01-25T22:20:54;6.40;77.31
69281;SHT31;56392;51.082;17.080;2024-01-25T22:26:18;6.36;77.35
69281;SHT31;56392;51.082;17.080;2024-01-25T22:31:41;6.37;77.24
69281;SHT31;56392;51.082;17.080;2024-01-25T22:37:05;6.36;77.21
69281;SHT31;56392;51.082;17.080;2024-01-25T22:42:29;6.42;76.77
69281;SHT31;56392;51.082;17.080;2024-01-25T22:47:54;6.44;76.55
69281;SHT31;56392;51.082;17.080;2024-01-25T22:53:17;6.42;76.49
69281;SHT31;56392;51.082;17.080;2024-01-25T22:58:42;6.43;76.62
69281;SHT31;56392;51.082;17.080;2024-01-25T23:04:05;6.43;76.39
69281;SHT31;56392;51.082;17.080;2024-01-25T23:09:29;6.39;78.22
69281;SHT31;56392;51.082;17.080;2024-01-25T23:14:53;6.39;78.34
69281;SHT31;56392;51.082;17.080;2024-01-25T23:20:16;6.33;76.90
69281;SHT31;56392;51.082;17.080;2024-01-25T23:25:40;6.33;77.56
69281;SHT31;56392;51.082;17.080;2024-01-25T23:31:06;6.22;78.95
69281;SHT31;56392;51.082;17.080;2024-01-25T23:36:31;6.18;78.90
69281;SHT31;56392;51.082;17.080;2024-01-25T23:41:55;6.18;78.31
69281;SHT31;56392;51.082;17.080;2024-01-25T23:47:19;6.13;78.66
69281;SHT31;56392;51.082;17.080;2024-01-25T23:52:42;6.12;78.12
69281;SHT31;56392;51.082;17.080;2024-01-25T23:58:05;6.15;77.40
